createdAt,value
2022-11-05T00:02:01.473Z,98709.94
2022-11-05T00:04:47.809Z,98707.53
2022-11-05T00:07:36.823Z,98710.91
2022-11-05T00:10:07.672Z,98717.97
2022-11-05T00:12:54.093Z,98724.41
2022-11-05T00:15:40.292Z,98715.97
2022-11-05T00:18:09.195Z,98714.38
2022-11-05T00:20:37.832Z,98724.81
2022-11-05T00:23:26.241Z,98727.25
2022-11-05T00:25:56.535Z,98724.66
2022-11-05T00:28:27.125Z,98726.44
2022-11-05T00:31:01.563Z,98730.28
2022-11-05T00:33:30.269Z,98739.91
2022-11-05T00:35:59.030Z,98736.50
2022-11-05T00:38:30.521Z,98740.31
2022-11-05T00:40:59.536Z,98737.09
2022-11-05T00:43:46.129Z,98736.88
2022-11-05T00:46:16.049Z,98742.09
2022-11-05T00:49:02.132Z,98748.53
2022-11-05T00:51:30.767Z,98746.94
2022-11-05T00:54:00.775Z,98752.16
2022-11-05T00:56:29.391Z,98764.19
2022-11-05T00:58:58.695Z,98764.78
2022-11-05T01:01:27.542Z,98771.59
2022-11-05T01:03:56.242Z,98770.59
2022-11-05T01:06:25.151Z,98765.81
2022-11-05T01:08:53.910Z,98773.78
2022-11-05T01:11:34.039Z,98784.06
2022-11-05T01:14:04.015Z,98777.44
2022-11-05T01:16:33.008Z,98783.25
2022-11-05T01:19:02.411Z,98781.47
2022-11-05T01:21:31.067Z,98778.25
2022-11-05T01:23:59.679Z,98779.06
2022-11-05T01:26:30.298Z,98788.91
2022-11-05T01:29:00.859Z,98780.50
2022-11-05T01:31:29.590Z,98787.91
2022-11-05T01:33:58.259Z,98793.72
2022-11-05T01:36:26.956Z,98793.31
2022-11-05T01:38:55.655Z,98801.94
2022-11-05T01:41:24.285Z,98798.34
2022-11-05T01:43:56.435Z,98802.53
2022-11-05T01:46:28.234Z,98803.91
2022-11-05T01:49:02.876Z,98801.31
2022-11-05T01:51:32.226Z,98794.91
2022-11-05T01:54:03.584Z,98802.91
2022-11-05T01:56:36.110Z,98805.94
2022-11-05T01:59:08.146Z,98800.13
2022-11-05T02:01:37.154Z,98809.13
2022-11-05T02:04:08.435Z,98810.75
2022-11-05T02:06:39.123Z,98807.13
2022-11-05T02:09:09.585Z,98811.94
2022-11-05T02:11:38.532Z,98803.13
2022-11-05T02:14:08.541Z,98809.34
2022-11-05T02:16:41.062Z,98805.94
2022-11-05T02:19:46.393Z,98805.34
2022-11-05T02:22:59.332Z,98816.78
2022-11-05T02:25:56.443Z,98809.13
2022-11-05T02:28:40.923Z,98810.38
2022-11-05T02:34:10.560Z,98813.56
2022-11-05T02:36:45.895Z,98813.78
2022-11-05T02:39:26.133Z,98813.97
2022-11-05T02:42:08.399Z,98824.41
2022-11-05T02:44:42.758Z,98826.81
2022-11-05T02:47:18.412Z,98822.03
2022-11-05T02:49:54.364Z,98826.03
2022-11-05T02:52:26.716Z,98828.44
2022-11-05T02:54:59.812Z,98820.00
2022-11-05T02:57:29.953Z,98814.16
2022-11-05T03:00:02.145Z,98826.19
2022-11-05T03:02:30.870Z,98825.59
2022-11-05T03:05:01.283Z,98818.97
2022-11-05T03:07:35.818Z,98822.78
2022-11-05T03:10:34.547Z,98816.38
2022-11-05T03:13:10.429Z,98825.41
2022-11-05T03:15:49.543Z,98825.00
2022-11-05T03:18:23.726Z,98826.81
2022-11-05T03:20:59.739Z,98834.22
2022-11-05T03:23:30.896Z,98838.25
2022-11-05T03:26:05.195Z,98845.25
2022-11-05T03:28:37.115Z,98840.25
2022-11-05T03:31:07.137Z,98850.28
2022-11-05T03:33:37.541Z,98843.84
2022-11-05T03:36:13.862Z,98849.47
2022-11-05T03:38:44.715Z,98858.50
2022-11-05T03:41:13.600Z,98855.31
2022-11-05T03:43:46.518Z,98864.19
2022-11-05T03:46:19.272Z,98859.75
2022-11-05T03:48:52.782Z,98864.56
2022-11-05T03:51:28.533Z,98861.94
2022-11-05T03:53:59.060Z,98868.16
2022-11-05T03:56:30.386Z,98872.59
2022-11-05T03:59:00.696Z,98879.22
2022-11-05T04:01:29.662Z,98882.63
2022-11-05T04:03:58.355Z,98884.84
2022-11-05T04:06:45.667Z,98883.25
2022-11-05T04:09:31.691Z,98893.47
2022-11-05T04:12:17.667Z,98888.47
2022-11-05T04:14:46.252Z,98890.44
2022-11-05T04:17:14.120Z,98892.69
2022-11-05T04:20:01.324Z,98889.88
2022-11-05T04:22:50.494Z,98890.66
2022-11-05T04:25:20.327Z,98898.28
2022-11-05T04:27:48.979Z,98904.91
2022-11-05T04:30:21.877Z,98903.91
2022-11-05T04:33:01.919Z,98919.56
2022-11-05T04:35:31.970Z,98919.16
2022-11-05T04:38:02.786Z,98925.41
2022-11-05T04:40:31.397Z,98925.59
2022-11-05T04:43:00.001Z,98926.19
2022-11-05T04:45:29.927Z,98925.97
2022-11-05T04:47:58.594Z,98917.56
2022-11-05T04:50:27.300Z,98922.97
2022-11-05T04:52:56.007Z,98930.81
2022-11-05T04:55:26.322Z,98931.81
2022-11-05T04:57:55.492Z,98926.38
2022-11-05T05:00:24.893Z,98933.63
2022-11-05T05:02:53.553Z,98936.25
2022-11-05T05:05:22.996Z,98940.06
2022-11-05T05:07:51.585Z,98940.47
2022-11-05T05:10:20.409Z,98940.47
2022-11-05T05:12:50.333Z,98944.06
2022-11-05T05:15:19.062Z,98946.47
2022-11-05T05:17:51.295Z,98950.69
2022-11-05T05:20:37.862Z,98946.69
2022-11-05T05:23:06.461Z,98957.09
2022-11-05T05:25:35.042Z,98957.69
2022-11-05T05:28:05.047Z,98960.31
2022-11-05T05:30:33.598Z,98957.69
2022-11-05T05:33:03.476Z,98963.94
2022-11-05T05:35:32.065Z,98964.31
2022-11-05T05:38:00.673Z,98967.13
2022-11-05T05:40:29.267Z,98962.53
2022-11-05T05:42:57.852Z,98968.72
2022-11-05T05:45:27.980Z,98970.34
2022-11-05T05:47:56.902Z,98971.75
2022-11-05T05:50:25.479Z,98971.94
2022-11-05T05:52:54.321Z,98971.75
2022-11-05T05:55:22.991Z,98980.97
2022-11-05T05:57:51.575Z,98983.19
2022-11-05T06:00:20.248Z,98987.63
2022-11-05T06:02:50.257Z,98991.84
2022-11-05T06:05:18.947Z,98990.03
2022-11-05T06:07:47.534Z,98987.41
2022-11-05T06:10:16.240Z,98989.59
2022-11-05T06:12:44.829Z,98993.81
2022-11-05T06:15:13.402Z,98998.06
2022-11-05T06:17:44.051Z,99003.66
2022-11-05T06:20:14.327Z,99013.06
2022-11-05T06:22:42.906Z,99011.50
2022-11-05T06:25:11.670Z,99009.47
2022-11-05T06:27:40.267Z,99016.31
2022-11-05T06:30:10.241Z,99021.31
2022-11-05T06:32:38.823Z,99032.16
2022-11-05T06:35:07.725Z,99037.38
2022-11-05T06:37:37.640Z,99038.78
2022-11-05T06:40:08.165Z,99035.16
2022-11-05T06:42:36.772Z,99041.19
2022-11-05T06:45:06.192Z,99040.16
2022-11-05T06:47:34.772Z,99048.41
2022-11-05T06:50:03.371Z,99047.81
2022-11-05T06:52:34.787Z,99060.47
2022-11-05T06:55:07.516Z,99056.03
2022-11-05T06:57:38.585Z,99069.88
2022-11-05T07:00:08.995Z,99064.47
2022-11-05T07:02:37.567Z,99075.91
2022-11-05T07:05:07.261Z,99081.34
2022-11-05T07:07:35.847Z,99080.72
2022-11-05T07:10:05.624Z,99084.53
2022-11-05T07:12:35.596Z,99082.16
2022-11-05T07:15:04.594Z,99091.34
2022-11-05T07:17:33.231Z,99102.00
2022-11-05T07:20:01.841Z,99100.00
2022-11-05T07:22:30.428Z,99096.22
2022-11-05T07:24:59.027Z,99116.06
2022-11-05T07:27:27.712Z,99113.47
2022-11-05T07:29:57.731Z,99120.28
2022-11-05T07:32:26.329Z,99123.09
2022-11-05T07:34:54.932Z,99119.91
2022-11-05T07:37:23.539Z,99134.97
2022-11-05T07:39:52.128Z,99127.72
2022-11-05T07:42:21.344Z,99134.56
2022-11-05T07:44:49.984Z,99139.78
2022-11-05T07:47:19.905Z,99143.22
2022-11-05T07:49:48.455Z,99148.44
2022-11-05T07:52:17.052Z,99146.81
2022-11-05T07:54:45.627Z,99141.59
2022-11-05T07:57:14.362Z,99154.84
2022-11-05T07:59:42.927Z,99151.03
2022-11-05T08:02:12.766Z,99155.66
2022-11-05T08:04:43.468Z,99158.66
2022-11-05T08:07:12.107Z,99163.69
2022-11-05T08:09:40.700Z,99160.09
2022-11-05T08:12:09.844Z,99167.09
2022-11-05T08:14:38.530Z,99155.44
2022-11-05T08:17:07.239Z,99165.69
2022-11-05T08:19:35.763Z,99172.94
2022-11-05T08:22:05.751Z,99174.72
2022-11-05T08:24:34.313Z,99179.31
2022-11-05T08:27:02.863Z,99174.91
2022-11-05T08:29:31.455Z,99176.91
2022-11-05T08:32:00.054Z,99182.94
2022-11-05T08:34:28.757Z,99190.56
2022-11-05T08:36:57.639Z,99187.13
2022-11-05T08:39:27.627Z,99193.34
2022-11-05T08:41:56.178Z,99195.97
2022-11-05T08:44:24.997Z,99200.97
2022-11-05T08:46:54.320Z,99206.19
2022-11-05T08:49:22.935Z,99198.19
2022-11-05T08:51:51.645Z,99206.19
2022-11-05T08:54:20.213Z,99210.53
2022-11-05T08:56:50.206Z,99220.72
2022-11-05T08:59:18.921Z,99226.34
2022-11-05T09:01:47.681Z,99228.03
2022-11-05T09:04:16.395Z,99228.03
2022-11-05T09:06:45.001Z,99233.53
2022-11-05T09:09:13.632Z,99238.34
2022-11-05T09:12:09.903Z,99237.44
2022-11-05T09:14:32.468Z,99230.09
2022-11-05T09:17:01.039Z,99231.75
2022-11-05T09:19:29.664Z,99235.59
2022-11-05T09:21:59.348Z,99237.75
2022-11-05T09:24:27.955Z,99244.75
2022-11-05T09:26:56.502Z,99254.69
2022-11-05T09:29:25.102Z,99250.72
2022-11-05T09:31:55.058Z,99248.75
2022-11-05T09:34:24.002Z,99252.13
2022-11-05T09:36:52.552Z,99252.44
2022-11-05T09:39:21.170Z,99251.63
2022-11-05T09:41:50.414Z,99256.56
2022-11-05T09:44:22.582Z,99259.41
2022-11-05T09:46:54.153Z,99257.34
2022-11-05T09:49:28.738Z,99254.63
2022-11-05T09:51:58.811Z,99263.44
2022-11-05T09:54:31.497Z,99261.25
2022-11-05T09:57:01.248Z,99258.06
2022-11-05T09:59:31.817Z,99265.91
2022-11-05T10:02:04.491Z,99274.31
2022-11-05T10:04:35.531Z,99271.16
2022-11-05T10:07:05.628Z,99275.59
2022-11-05T10:09:37.987Z,99283.38
2022-11-05T10:12:12.035Z,99288.84
2022-11-05T10:14:44.297Z,99287.59
2022-11-05T10:17:17.057Z,99292.03
2022-11-05T10:19:51.198Z,99296.25
2022-11-05T10:22:20.340Z,99295.28
2022-11-05T10:24:50.326Z,99299.91
2022-11-05T10:27:23.253Z,99305.16
2022-11-05T10:29:52.058Z,99294.53
2022-11-05T10:32:28.869Z,99306.34
2022-11-05T10:35:01.079Z,99308.19
2022-11-05T10:37:29.965Z,99314.19
2022-11-05T10:39:58.838Z,99313.41
2022-11-05T10:42:40.435Z,99307.38
2022-11-05T10:45:19.096Z,99307.78
2022-11-05T10:47:54.424Z,99313.81
2022-11-05T10:50:25.801Z,99319.66
2022-11-05T10:52:58.486Z,99318.66
2022-11-05T10:55:29.343Z,99319.88
2022-11-05T10:58:11.445Z,99322.69
2022-11-05T11:00:40.859Z,99324.72
2022-11-05T11:03:33.436Z,99325.09
2022-11-05T11:06:04.961Z,99316.06
2022-11-05T11:08:35.303Z,99308.41
2022-11-05T11:11:05.799Z,99328.31
2022-11-05T11:13:50.846Z,99329.47
2022-11-05T11:16:22.036Z,99326.25
2022-11-05T11:18:54.652Z,99321.47
2022-11-05T11:21:24.834Z,99324.31
2022-11-05T11:23:58.052Z,99323.91
2022-11-05T11:26:29.223Z,99324.31
2022-11-05T11:29:00.639Z,99330.38
2022-11-05T11:31:31.268Z,99326.97
2022-11-05T11:34:02.544Z,99329.00
2022-11-05T11:36:41.270Z,99324.81
2022-11-05T11:39:17.520Z,99338.09
2022-11-05T11:41:46.634Z,99328.84
2022-11-05T11:44:18.091Z,99324.44
2022-11-05T11:46:50.011Z,99321.66
2022-11-05T11:49:32.424Z,99332.72
2022-11-05T11:52:05.614Z,99331.72
2022-11-05T11:54:35.422Z,99336.16
2022-11-05T11:57:04.358Z,99333.94
2022-11-05T12:00:06.749Z,99334.94
2022-11-05T12:02:41.682Z,99329.13
2022-11-05T12:05:24.433Z,99327.31
2022-11-05T12:07:55.619Z,99330.94
2022-11-05T12:10:40.964Z,99325.31
2022-11-05T12:13:44.847Z,99318.84
2022-11-05T12:16:20.015Z,99321.69
2022-11-05T12:18:54.391Z,99315.66
2022-11-05T12:21:51.601Z,99316.88
2022-11-05T12:24:51.657Z,99313.22
2022-11-05T12:27:29.538Z,99311.84
2022-11-05T12:30:01.017Z,99306.41
2022-11-05T12:32:56.030Z,99309.63
2022-11-05T12:35:44.197Z,99301.38
2022-11-05T12:38:23.898Z,99308.44
2022-11-05T12:41:02.244Z,99311.22
2022-11-05T12:43:42.806Z,99306.41
2022-11-05T12:46:22.312Z,99311.25
2022-11-05T12:49:07.618Z,99312.84
2022-11-05T12:51:49.371Z,99308.00
2022-11-05T12:54:25.751Z,99319.06
2022-11-05T12:56:59.075Z,99319.06
2022-11-05T12:59:33.455Z,99327.72
2022-11-05T13:02:08.406Z,99315.06
2022-11-05T13:04:44.996Z,99318.88
2022-11-05T13:07:17.647Z,99311.22
2022-11-05T13:09:48.438Z,99321.06
2022-11-05T13:12:21.960Z,99317.66
2022-11-05T13:14:55.494Z,99315.66
2022-11-05T13:17:27.686Z,99317.66
2022-11-05T13:20:00.800Z,99315.63
2022-11-05T13:22:34.634Z,99326.50
2022-11-05T13:25:06.703Z,99323.31
2022-11-05T13:27:49.018Z,99320.88
2022-11-05T13:30:19.607Z,99319.91
2022-11-05T13:32:50.496Z,99322.09
2022-11-05T13:35:24.056Z,99332.97
2022-11-05T13:38:13.084Z,99329.72
2022-11-05T13:41:05.291Z,99327.53
2022-11-05T13:43:59.721Z,99319.47
2022-11-05T13:46:46.435Z,99324.69
2022-11-05T13:49:32.844Z,99328.31
2022-11-05T13:52:13.013Z,99330.94
2022-11-05T13:55:16.493Z,99326.91
2022-11-05T13:58:02.313Z,99327.13
2022-11-05T14:00:33.976Z,99321.91
2022-11-05T14:03:04.796Z,99324.31
2022-11-05T14:05:35.537Z,99331.94
2022-11-05T14:08:11.557Z,99333.94
2022-11-05T14:10:42.167Z,99322.09
2022-11-05T14:13:23.102Z,99335.97
2022-11-05T14:16:04.095Z,99331.75
2022-11-05T14:18:39.283Z,99334.56
2022-11-05T14:21:47.174Z,99341.59
2022-11-05T14:24:28.630Z,99345.63
2022-11-05T14:27:41.683Z,99337.38
2022-11-05T14:30:44.805Z,99348.84
2022-11-05T14:36:36.484Z,99351.44
2022-11-05T14:39:29.260Z,99349.03
2022-11-05T14:42:01.790Z,99352.44
2022-11-05T14:44:31.506Z,99358.06
2022-11-05T14:47:01.957Z,99349.81
2022-11-05T14:49:33.462Z,99362.28
2022-11-05T14:52:08.008Z,99358.84
2022-11-05T14:54:41.225Z,99363.09
2022-11-05T14:57:13.063Z,99365.28
2022-11-05T15:00:00.752Z,99367.69
2022-11-05T15:02:36.069Z,99371.09
2022-11-05T15:05:40.082Z,99373.53
2022-11-05T15:08:33.003Z,99376.72
2022-11-05T15:11:12.551Z,99383.16
2022-11-05T15:13:49.562Z,99380.75
2022-11-05T15:16:21.867Z,99380.75
2022-11-05T15:18:51.162Z,99375.91
2022-11-05T15:21:21.001Z,99380.09
2022-11-05T15:23:53.114Z,99379.50
2022-11-05T15:26:26.101Z,99377.91
2022-11-05T15:28:55.747Z,99378.50
2022-11-05T15:31:30.016Z,99393.56
2022-11-05T15:34:18.107Z,99391.75
2022-11-05T15:36:55.466Z,99386.91
2022-11-05T15:39:30.310Z,99389.53
2022-11-05T15:42:00.309Z,99390.72
2022-11-05T15:44:30.710Z,99394.75
2022-11-05T15:47:07.737Z,99386.28
2022-11-05T15:49:36.379Z,99383.88
2022-11-05T15:52:05.512Z,99383.88
2022-11-05T15:54:36.039Z,99394.72
2022-11-05T15:57:05.040Z,99389.69
2022-11-05T15:59:35.029Z,99387.09
2022-11-05T16:02:07.178Z,99398.31
2022-11-05T16:04:36.152Z,99397.13
2022-11-05T16:07:09.216Z,99392.72
2022-11-05T16:09:43.562Z,99400.16
2022-11-05T16:12:30.767Z,99395.28
2022-11-05T16:15:01.091Z,99399.31
2022-11-05T16:17:33.360Z,99400.31
2022-11-05T16:20:02.032Z,99402.91
2022-11-05T16:22:45.918Z,99405.53
2022-11-05T16:25:47.157Z,99412.38
2022-11-05T16:28:23.114Z,99419.00
2022-11-05T16:30:56.285Z,99412.38
2022-11-05T16:33:25.884Z,99414.44
2022-11-05T16:35:54.906Z,99410.44
2022-11-05T16:38:24.023Z,99414.84
2022-11-05T16:40:53.962Z,99413.81
2022-11-05T16:43:24.482Z,99418.44
2022-11-05T16:45:54.430Z,99426.66
2022-11-05T16:48:23.196Z,99434.50
2022-11-05T16:50:51.861Z,99432.25
2022-11-05T16:53:20.746Z,99435.88
2022-11-05T16:55:49.445Z,99430.84
2022-11-05T16:58:21.525Z,99433.47
2022-11-05T17:00:51.950Z,99432.44
2022-11-05T17:03:20.715Z,99434.44
2022-11-05T17:05:49.500Z,99435.81
2022-11-05T17:08:18.091Z,99439.22
2022-11-05T17:10:46.710Z,99436.94
2022-11-05T17:13:15.999Z,99437.16
2022-11-05T17:15:47.262Z,99447.00
2022-11-05T17:18:18.800Z,99438.72
2022-11-05T17:20:49.007Z,99443.94
2022-11-05T17:23:19.541Z,99436.84
2022-11-05T17:25:49.833Z,99446.50
2022-11-05T17:28:18.944Z,99426.16
2022-11-05T17:30:52.911Z,99443.81
2022-11-05T17:33:23.037Z,99440.56
2022-11-05T17:35:52.610Z,99449.56
2022-11-05T17:38:23.132Z,99450.97
2022-11-05T17:40:51.925Z,99451.97
2022-11-05T17:43:21.062Z,99450.34
2022-11-05T17:45:52.776Z,99451.91
2022-11-05T17:48:22.059Z,99455.47
2022-11-05T17:50:51.588Z,99454.38
2022-11-05T17:53:20.552Z,99457.53
2022-11-05T17:55:49.301Z,99460.31
2022-11-05T17:58:18.209Z,99465.31
2022-11-05T18:00:47.855Z,99469.47
2022-11-05T18:03:17.908Z,99483.69
2022-11-05T18:05:46.518Z,99480.38
2022-11-05T18:08:15.108Z,99489.81
2022-11-05T18:10:43.834Z,99494.78
2022-11-05T18:13:12.943Z,99495.53
2022-11-05T18:15:41.956Z,99500.28
2022-11-05T18:18:10.634Z,99502.47
2022-11-05T18:20:40.595Z,99503.91
2022-11-05T18:23:09.429Z,99502.06
2022-11-05T18:25:38.172Z,99515.19
2022-11-05T18:28:07.033Z,99509.78
2022-11-05T18:30:35.746Z,99505.22
2022-11-05T18:33:04.558Z,99503.97
2022-11-05T18:35:33.126Z,99508.09
2022-11-05T18:38:03.051Z,99503.06
2022-11-05T18:40:31.678Z,99494.59
2022-11-05T18:43:00.280Z,99505.75
2022-11-05T18:45:30.041Z,99507.56
2022-11-05T18:48:00.350Z,99506.47
2022-11-05T18:50:29.730Z,99502.88
2022-11-05T18:52:58.784Z,99505.47
2022-11-05T18:55:28.803Z,99497.97
2022-11-05T18:57:57.384Z,99505.94
2022-11-05T19:00:26.014Z,99508.25
2022-11-05T19:02:55.186Z,99496.59
2022-11-05T19:05:31.140Z,99496.94
2022-11-05T19:08:00.000Z,99496.66
2022-11-05T19:10:30.041Z,99500.44
2022-11-05T19:12:58.630Z,99502.41
2022-11-05T19:15:27.301Z,99491.09
2022-11-05T19:17:55.926Z,99495.50
2022-11-05T19:20:24.583Z,99498.09
2022-11-05T19:22:53.187Z,99502.84
2022-11-05T19:25:21.781Z,99494.22
2022-11-05T19:27:51.794Z,99491.34
2022-11-05T19:30:20.449Z,99495.94
2022-11-05T19:32:49.095Z,99485.84
2022-11-05T19:35:18.474Z,99496.78
2022-11-05T19:37:47.093Z,99489.88
2022-11-05T19:40:15.705Z,99496.22
2022-11-05T19:42:44.282Z,99494.25
2022-11-05T19:45:42.955Z,99501.06
2022-11-05T19:48:03.096Z,99503.09
2022-11-05T19:50:32.042Z,99503.16
2022-11-05T19:53:01.120Z,99502.22
2022-11-05T19:55:29.736Z,99504.03
2022-11-05T19:57:58.320Z,99511.09
2022-11-05T20:00:28.339Z,99504.56
2022-11-05T20:02:57.048Z,99518.47
2022-11-05T20:05:25.756Z,99508.50
2022-11-05T20:07:54.366Z,99512.78
2022-11-05T20:10:23.134Z,99511.50
2022-11-05T20:12:51.874Z,99522.34
2022-11-05T20:15:20.534Z,99517.97
2022-11-05T20:17:51.610Z,99523.53
2022-11-05T20:20:20.597Z,99522.66
2022-11-05T20:22:49.184Z,99537.03
2022-11-05T20:25:17.906Z,99531.38
2022-11-05T20:27:46.634Z,99520.28
2022-11-05T20:30:15.270Z,99537.72
2022-11-05T20:32:43.859Z,99542.59
2022-11-05T20:35:13.789Z,99543.66
2022-11-05T20:37:42.444Z,99539.91
2022-11-05T20:40:13.942Z,99543.13
2022-11-05T20:42:43.015Z,99547.72
2022-11-05T20:45:12.213Z,99556.13
2022-11-05T20:47:40.787Z,99548.69
2022-11-05T20:50:10.608Z,99551.63
2022-11-05T20:52:40.711Z,99552.59
2022-11-05T20:55:10.027Z,99553.41
2022-11-05T20:57:38.813Z,99539.91
2022-11-05T21:00:08.825Z,99539.25
2022-11-05T21:02:39.527Z,99538.41
2022-11-05T21:05:08.910Z,99538.63
2022-11-05T21:07:37.704Z,99546.94
2022-11-05T21:10:08.205Z,99554.34
2022-11-05T21:12:36.794Z,99556.81
2022-11-05T21:15:06.244Z,99543.69
2022-11-05T21:17:34.856Z,99544.72
2022-11-05T21:20:03.513Z,99550.72
2022-11-05T21:22:32.190Z,99553.31
2022-11-05T21:25:00.766Z,99550.72
2022-11-05T21:27:30.741Z,99549.44
2022-11-05T21:29:59.339Z,99542.94
2022-11-05T21:32:27.975Z,99542.91
2022-11-05T21:34:56.643Z,99543.63
2022-11-05T21:37:25.259Z,99543.44
2022-11-05T21:39:54.183Z,99545.69
2022-11-05T21:42:22.852Z,99541.66
2022-11-05T21:44:57.712Z,99549.09
2022-11-05T21:47:29.037Z,99548.28
2022-11-05T21:49:57.729Z,99549.59
2022-11-05T21:52:43.835Z,99540.50
2022-11-05T21:55:30.869Z,99536.97
2022-11-05T21:58:18.515Z,99538.09
2022-11-05T22:00:48.460Z,99541.25
2022-11-05T22:03:17.071Z,99544.94
2022-11-05T22:05:45.775Z,99539.63
2022-11-05T22:08:14.789Z,99536.22
2022-11-05T22:10:43.738Z,99544.00
2022-11-05T22:13:12.382Z,99529.56
2022-11-05T22:15:41.064Z,99540.00
2022-11-05T22:18:11.359Z,99537.06
2022-11-05T22:20:40.423Z,99546.97
2022-11-05T22:23:11.413Z,99546.00
2022-11-05T22:25:40.237Z,99541.16
2022-11-05T22:28:08.977Z,99535.34
2022-11-05T22:30:37.607Z,99538.56
2022-11-05T22:33:06.263Z,99537.28
2022-11-05T22:35:36.270Z,99540.34
2022-11-05T22:38:04.847Z,99538.25
2022-11-05T22:40:33.460Z,99536.47
2022-11-05T22:43:02.083Z,99539.69
2022-11-05T22:45:30.669Z,99538.75
2022-11-05T22:48:02.544Z,99532.91
2022-11-05T22:50:36.221Z,99526.78
2022-11-05T22:53:04.904Z,99530.16
2022-11-05T22:55:33.551Z,99520.94
2022-11-05T22:58:02.138Z,99526.13
2022-11-05T23:00:35.955Z,99520.13
2022-11-05T23:03:04.710Z,99535.53
2022-11-05T23:05:33.475Z,99527.59
2022-11-05T23:08:21.357Z,99517.53
2022-11-05T23:11:07.777Z,99511.56
2022-11-05T23:13:36.380Z,99510.72
2022-11-05T23:16:23.133Z,99512.84
2022-11-05T23:19:09.184Z,99505.38
2022-11-05T23:21:51.691Z,99503.94
2022-11-05T23:24:21.623Z,99506.84
2022-11-05T23:26:53.815Z,99506.03
2022-11-05T23:29:24.018Z,99509.13
2022-11-05T23:32:10.322Z,99502.47
2022-11-05T23:34:39.283Z,99508.47
2022-11-05T23:37:26.027Z,99507.66
2022-11-05T23:39:56.049Z,99507.84
2022-11-05T23:42:44.950Z,99505.53
2022-11-05T23:45:30.914Z,99506.22
2022-11-05T23:48:17.778Z,99497.81
2022-11-05T23:50:48.868Z,99485.97
2022-11-05T23:53:18.003Z,99487.09
2022-11-05T23:55:48.405Z,99488.41
2022-11-05T23:58:17.893Z,99488.09
